Terminal Aerodrome Forecast
Issued by NWS

Home | Current Version | Previous Version | Text Only | Print | Product List | Glossary On
Versions: 1 2 3 4 5 6 7 8 9 10 11 12
000
FTUS43 KAPX 282335
TAFTVC
TAF
KTVC 282335Z 2900/2924 15005KT P6SM BKN100 OVC180 WS020/19032KT
     FM290900 15004KT 1 1/2SM -SN OVC020 WS020/20030KT
     FM291300 21006KT 1 1/2SM -SN OVC012
     FM291600 31010KT 3SM -SHSN OVC018
     FM291800 31014G24KT 3SM -SHSN BLSN OVC022=

USA.gov is the U.S. government's official web portal to all federal, state and local government web resources and services.